Time;durP1;ratioP1;P1;durP2;ratioP2;P2;SDS_P1;SDS_P2;PMS_P1;PMS_P2;Temp;Humidity;BMP_temperature;BMP_pressure;BME280_temperature;BME280_humidity;BME280_pressure;Samples;Min_cycle;Max_cycle;Signal;HPM_P1;HPM_P2
2022/03/12 00:01:35;;;;;;;0.30;0.20;;;;;;;5.08;54.32;100406.06;5035373;28;20517;-49
2022/03/12 00:04:04;;;;;;;0.30;0.10;;;;;;;5.18;53.82;100405.09;5035384;28;20878;-48
2022/03/12 00:06:30;;;;;;;0.30;0.20;;;;;;;5.11;53.80;100398.13;5035841;28;20447;-49
2022/03/12 00:08:57;;;;;;;0.30;0.20;;;;;;;5.21;53.96;100400.72;5029357;28;20523;-49
2022/03/12 00:11:27;;;;;;;1.20;1.20;;;;;;;5.08;54.95;100400.78;5035169;28;20471;-49
2022/03/12 00:13:57;;;;;;;0.30;0.20;;;;;;;5.20;55.06;100404.22;5035209;28;20450;-49
2022/03/12 00:16:26;;;;;;;1.37;1.37;;;;;;;5.30;55.24;100391.88;5025096;28;20503;-49
2022/03/12 00:18:56;;;;;;;0.30;0.20;;;;;;;5.13;55.36;100410.41;5029146;28;20452;-49
2022/03/12 00:21:25;;;;;;;0.70;0.67;;;;;;;5.06;55.72;100408.66;5035153;28;20475;-49
2022/03/12 00:23:55;;;;;;;0.30;0.20;;;;;;;5.20;54.26;100401.56;5034982;28;20451;-49
2022/03/12 00:26:23;;;;;;;0.33;0.33;;;;;;;5.10;54.80;100414.81;5035713;28;20455;-49
2022/03/12 00:28:54;;;;;;;15.30;1.13;;;;;;;5.27;54.20;100418.25;5034781;28;20482;-49
2022/03/12 00:31:21;;;;;;;0.30;0.20;;;;;;;5.16;54.54;100425.31;5023477;28;20487;-49
2022/03/12 00:33:48;;;;;;;0.50;0.50;;;;;;;5.10;54.67;100418.31;5033980;28;20509;-48
2022/03/12 00:36:16;;;;;;;0.30;0.30;;;;;;;5.13;54.79;100414.81;5034695;28;20497;-48
2022/03/12 00:38:45;;;;;;;1.03;1.03;;;;;;;5.14;54.47;100419.19;5034598;28;20451;-48
2022/03/12 00:41:13;;;;;;;0.30;0.20;;;;;;;5.05;54.58;100420.97;5021032;28;20496;-49
2022/03/12 00:43:40;;;;;;;0.43;0.43;;;;;;;5.13;55.45;100410.41;5021900;28;20488;-49
2022/03/12 00:46:06;;;;;;;0.80;0.80;;;;;;;5.15;55.05;100413.91;5034416;28;20447;-50
2022/03/12 00:48:34;;;;;;;0.20;0.10;;;;;;;5.16;55.47;100414.78;5024089;28;20455;-49
2022/03/12 00:51:05;;;;;;;0.60;0.60;;;;;;;5.21;55.22;100410.38;5034210;28;20983;-49
2022/03/12 00:53:34;;;;;;;0.20;0.10;;;;;;;5.39;54.74;100409.41;5033341;28;20456;-49
2022/03/12 00:56:00;;;;;;;0.67;0.63;;;;;;;5.32;54.72;100411.19;5021550;28;20460;-49
2022/03/12 00:58:27;;;;;;;0.20;0.13;;;;;;;5.24;55.20;100410.38;5034522;28;20448;-48
2022/03/12 01:00:54;;;;;;;0.20;0.10;;;;;;;5.18;55.68;100405.97;5033953;28;20640;-48
2022/03/12 01:03:21;;;;;;;1.17;0.90;;;;;;;5.32;54.29;100406.78;5034613;28;20455;-49
2022/03/12 01:05:53;;;;;;;0.20;0.10;;;;;;;5.39;54.78;100409.41;5034066;28;20937;-49
2022/03/12 01:08:23;;;;;;;0.70;0.70;;;;;;;5.47;54.16;100416.34;5029948;28;20869;-49
2022/03/12 01:10:51;;;;;;;2.53;0.93;;;;;;;5.63;52.47;100418.03;5030842;28;20936;-49
2022/03/12 01:13:18;;;;;;;0.40;0.37;;;;;;;5.72;53.83;100426.75;5034045;28;20538;-49
2022/03/12 01:15:45;;;;;;;0.20;0.10;;;;;;;5.77;52.98;100417.94;5032853;28;20451;-49
2022/03/12 01:18:14;;;;;;;0.20;0.10;;;;;;;5.77;52.62;100420.59;5029796;28;20497;-49
2022/03/12 01:20:42;;;;;;;0.20;0.10;;;;;;;5.60;54.11;100414.53;5033976;28;21062;-50
2022/03/12 01:23:12;;;;;;;0.20;0.20;;;;;;;5.73;53.99;100405.66;5028859;28;20468;-49
2022/03/12 01:25:40;;;;;;;0.30;0.20;;;;;;;5.69;53.94;100406.56;5032432;28;20849;-48
2022/03/12 01:28:09;;;;;;;0.30;0.30;;;;;;;5.67;53.98;100400.44;5033856;28;20517;-49
2022/03/12 01:30:36;;;;;;;0.30;0.20;;;;;;;5.89;51.06;100411.69;5033596;28;20502;-49
2022/03/12 01:33:04;;;;;;;0.20;0.20;;;;;;;6.15;49.75;100407.09;5033839;28;20468;-49
2022/03/12 01:35:31;;;;;;;0.30;0.17;;;;;;;5.92;49.67;100401.16;5033896;28;20452;-49
2022/03/12 01:37:58;;;;;;;0.40;0.40;;;;;;;6.00;49.79;100409.00;5028081;28;20507;-49
2022/03/12 01:40:26;;;;;;;0.20;0.10;;;;;;;6.02;49.28;100399.31;5032304;28;20541;-49
2022/03/12 01:42:53;;;;;;;0.53;0.50;;;;;;;5.94;49.54;100409.94;5021128;28;20892;-49
2022/03/12 01:45:29;;;;;;;0.20;0.20;;;;;;;6.03;49.72;100404.59;5033438;28;20506;-49
2022/03/12 01:47:58;;;;;;;0.63;0.63;;;;;;;6.16;50.38;100407.97;5021911;28;20456;-49
2022/03/12 01:50:29;;;;;;;0.30;0.23;;;;;;;6.14;49.78;100409.75;5033364;28;20933;-49
2022/03/12 01:53:03;;;;;;;0.20;0.10;;;;;;;6.14;51.46;100415.03;5033434;28;20518;-49
2022/03/12 01:55:31;;;;;;;0.30;0.20;;;;;;;5.90;52.45;100416.13;5033515;28;20854;-49
2022/03/12 01:58:01;;;;;;;0.30;0.10;;;;;;;5.86;52.35;100412.59;5032456;28;20459;-49
2022/03/12 02:00:43;;;;;;;0.20;0.20;;;;;;;5.71;52.66;100406.56;5033552;28;20487;-49
2022/03/12 02:03:11;;;;;;;0.30;0.10;;;;;;;5.70;53.56;100410.06;5007918;28;20475;-49
2022/03/12 02:05:38;;;;;;;2.30;1.07;;;;;;;5.70;54.66;100410.06;5033024;28;20505;-49
2022/03/12 02:08:06;;;;;;;3.13;1.80;;;;;;;5.68;53.60;100418.00;5033049;28;20502;-50
2022/03/12 02:10:36;;;;;;;0.30;0.20;;;;;;;5.72;53.00;100416.22;5027272;28;21006;-50
2022/03/12 02:13:03;;;;;;;0.20;0.20;;;;;;;5.61;54.27;100414.50;5004306;28;20487;-49
2022/03/12 02:15:30;;;;;;;0.40;0.40;;;;;;;5.64;54.15;100418.91;5026502;28;20452;-50
2022/03/12 02:17:57;;;;;;;0.30;0.20;;;;;;;5.67;53.92;100413.63;5028618;28;20459;-50
2022/03/12 02:20:24;;;;;;;5.80;2.10;;;;;;;5.62;55.25;100424.22;5032716;28;20483;-49
2022/03/12 02:22:53;;;;;;;0.30;0.20;;;;;;;5.70;54.00;100421.50;5032651;28;20475;-49
2022/03/12 02:25:31;;;;;;;0.30;0.30;;;;;;;5.66;53.89;100422.41;5032922;28;20470;-50
2022/03/12 02:28:02;;;;;;;0.20;0.20;;;;;;;5.71;54.82;100428.53;5026823;28;20507;-49
2022/03/12 02:30:47;;;;;;;0.27;0.17;;;;;;;5.61;54.21;100432.09;5023185;28;20498;-50
2022/03/12 02:33:14;;;;;;;0.30;0.30;;;;;;;5.57;54.21;100433.88;5032441;28;20496;-49
2022/03/12 02:35:42;;;;;;;0.20;0.10;;;;;;;5.63;54.20;100423.31;5032532;28;20463;-50
2022/03/12 02:38:08;;;;;;;0.30;0.13;;;;;;;5.87;50.94;100432.78;5023894;28;20540;-49
2022/03/12 02:40:35;;;;;;;4.30;1.73;;;;;;;5.77;50.55;100425.00;5032751;28;20570;-49
2022/03/12 02:43:03;;;;;;;0.30;0.30;;;;;;;5.58;50.36;100426.84;5032799;28;20888;-49
2022/03/12 02:45:30;;;;;;;0.20;0.10;;;;;;;5.45;50.69;100433.06;5032686;28;20447;-49
2022/03/12 02:47:57;;;;;;;0.40;0.40;;;;;;;5.70;50.15;100436.44;5015812;28;20560;-49
2022/03/12 02:50:25;;;;;;;0.20;0.20;;;;;;;5.59;49.40;100433.88;5032877;28;20452;-49
2022/03/12 02:52:52;;;;;;;0.20;0.20;;;;;;;5.72;49.57;100439.94;5031190;28;20474;-49
2022/03/12 02:55:24;;;;;;;0.30;0.10;;;;;;;5.83;50.26;100439.00;5032736;28;20452;-50
2022/03/12 02:57:52;;;;;;;0.67;0.50;;;;;;;5.64;49.79;100443.53;5023523;28;20452;-49
2022/03/12 03:00:20;;;;;;;0.20;0.10;;;;;;;5.50;49.73;100442.72;5032328;28;20495;-49
2022/03/12 03:02:53;;;;;;;0.20;0.10;;;;;;;5.56;50.04;100447.94;5031308;28;20477;-49
2022/03/12 03:06:09;;;;;;;2.23;2.20;;;;;;;5.58;50.90;100450.56;5013572;28;20449;-49
2022/03/12 03:08:15;;;;;;;0.20;0.10;;;;;;;5.57;50.37;100462.88;5001206;28;20517;-49
2022/03/12 03:10:44;;;;;;;0.30;0.10;;;;;;;5.50;50.57;100466.47;5027788;28;20448;-50
2022/03/12 03:13:17;;;;;;;0.53;0.50;;;;;;;5.43;50.59;100458.56;5031963;28;20483;-49
2022/03/12 03:15:49;;;;;;;0.20;0.20;;;;;;;5.26;50.21;100443.72;5032008;28;20451;-49
2022/03/12 03:18:20;;;;;;;0.30;0.20;;;;;;;5.28;50.98;100470.94;5019074;28;20457;-49
2022/03/12 03:20:48;;;;;;;0.20;0.10;;;;;;;5.33;51.19;100463.00;5022015;28;20492;-49
2022/03/12 03:23:15;;;;;;;0.30;0.20;;;;;;;5.04;51.99;100473.66;5031808;28;20840;-49
2022/03/12 03:25:47;;;;;;;0.20;0.20;;;;;;;5.30;51.44;100476.19;5032157;28;20449;-48
2022/03/12 03:28:15;;;;;;;0.30;0.20;;;;;;;5.27;51.06;100466.56;5032164;28;20494;-49
2022/03/12 03:30:41;;;;;;;0.60;0.60;;;;;;;5.27;50.86;100466.56;5028352;28;20507;-49
2022/03/12 03:33:14;;;;;;;1.13;1.13;;;;;;;5.31;51.22;100467.41;5019452;28;20997;-49
2022/03/12 03:35:40;;;;;;;0.20;0.10;;;;;;;5.29;50.89;100462.16;5031809;28;20448;-49
2022/03/12 03:38:11;;;;;;;0.20;0.10;;;;;;;5.43;50.53;100477.91;5032212;28;20451;-49
2022/03/12 03:40:40;;;;;;;0.20;0.10;;;;;;;5.51;50.39;100480.50;5031998;28;20491;-49
2022/03/12 03:43:09;;;;;;;0.47;0.47;;;;;;;5.56;51.51;100484.00;5031639;28;21015;-49
2022/03/12 03:45:36;;;;;;;0.20;0.20;;;;;;;5.46;52.93;100485.78;5032060;28;20505;-49
2022/03/12 03:48:04;;;;;;;0.30;0.20;;;;;;;5.39;53.47;100494.63;5020630;28;20496;-49
2022/03/12 03:50:30;;;;;;;0.30;0.20;;;;;;;5.34;54.99;100494.66;5032088;28;20471;-49
2022/03/12 03:53:03;;;;;;;0.30;0.30;;;;;;;5.20;56.26;100499.06;5031719;28;21034;-49
2022/03/12 03:55:32;;;;;;;0.20;0.20;;;;;;;5.27;55.33;100510.47;5026131;28;20454;-49
2022/03/12 03:58:00;;;;;;;1.50;1.40;;;;;;;5.30;54.37;100513.09;5029547;28;20455;-49
2022/03/12 04:00:27;;;;;;;0.20;0.20;;;;;;;5.38;54.32;100526.25;5031689;28;20488;-49
2022/03/12 04:03:04;;;;;;;3.20;1.93;;;;;;;5.34;54.00;100518.38;5022947;28;20523;-49
2022/03/12 04:05:37;;;;;;;0.77;0.77;;;;;;;5.43;53.66;100525.34;5014846;28;20976;-49
2022/03/12 04:08:07;;;;;;;0.30;0.30;;;;;;;5.31;54.21;100525.38;5031788;28;20448;-49
2022/03/12 04:10:35;;;;;;;0.20;0.10;;;;;;;5.16;54.87;100530.72;5021022;28;20991;-49
2022/03/12 04:13:09;;;;;;;0.20;0.10;;;;;;;5.21;55.69;100528.97;5035514;28;20483;-50
2022/03/12 04:15:37;;;;;;;0.20;0.10;;;;;;;5.11;53.98;100535.13;5034163;28;20473;-51
2022/03/12 04:18:05;;;;;;;1.07;1.07;;;;;;;5.22;54.82;100530.72;5031907;28;20462;-51
2022/03/12 04:20:32;;;;;;;0.40;0.40;;;;;;;4.85;54.99;100524.63;5020636;28;20503;-50
2022/03/12 04:22:59;;;;;;;0.20;0.10;;;;;;;4.64;54.44;100526.41;5015140;28;20487;-51
2022/03/12 04:25:27;;;;;;;0.63;0.60;;;;;;;5.05;54.57;100526.34;5032409;28;20455;-51
2022/03/12 04:27:54;;;;;;;0.30;0.20;;;;;;;4.93;53.52;100522.84;5034782;28;20824;-51
2022/03/12 04:30:21;;;;;;;0.20;0.20;;;;;;;5.05;53.71;100525.47;5034748;28;20471;-51
2022/03/12 04:32:48;;;;;;;0.40;0.37;;;;;;;5.01;51.97;100516.69;5033666;28;20525;-51
2022/03/12 04:35:17;;;;;;;0.20;0.10;;;;;;;5.11;52.97;100528.09;5034710;28;20501;-51
2022/03/12 04:37:44;;;;;;;0.63;0.63;;;;;;;5.18;54.05;100524.53;5020909;28;20456;-51
2022/03/12 04:40:16;;;;;;;0.30;0.20;;;;;;;5.04;50.85;100524.59;5031673;28;20502;-51
2022/03/12 04:42:43;;;;;;;0.20;0.13;;;;;;;5.41;50.76;100528.88;5034736;28;20880;-51
2022/03/12 04:45:15;;;;;;;0.60;0.60;;;;;;;5.41;50.67;100539.41;5034876;28;20451;-51
2022/03/12 04:47:44;;;;;;;0.30;0.10;;;;;;;5.37;51.43;100532.41;5024627;28;20511;-51
2022/03/12 04:50:14;;;;;;;0.20;0.10;;;;;;;5.40;51.45;100520.09;5034619;28;20497;-51
2022/03/12 04:52:43;;;;;;;0.20;0.20;;;;;;;5.39;50.61;100515.72;5031225;28;20843;-51
2022/03/12 04:55:15;;;;;;;0.20;0.10;;;;;;;5.37;51.59;100529.78;5022927;28;20832;-51
2022/03/12 04:57:43;;;;;;;0.30;0.30;;;;;;;5.47;51.90;100528.84;5034506;28;20451;-51
2022/03/12 05:00:15;;;;;;;0.30;0.20;;;;;;;5.45;51.14;100527.97;5034477;28;20448;-51
2022/03/12 05:02:42;;;;;;;0.30;0.27;;;;;;;5.53;51.81;100523.56;5020392;28;20471;-51
2022/03/12 05:05:13;;;;;;;0.97;0.97;;;;;;;5.51;52.24;100526.19;5034307;28;20451;-51
2022/03/12 05:07:45;;;;;;;0.27;0.20;;;;;;;5.43;51.35;100532.38;5025384;28;20781;-51
2022/03/12 05:10:13;;;;;;;0.20;0.10;;;;;;;5.55;51.29;100537.59;5017795;28;20546;-51
2022/03/12 05:12:40;;;;;;;0.67;0.67;;;;;;;5.63;51.58;100534.06;5032631;28;20487;-51
2022/03/12 05:15:10;;;;;;;0.70;0.70;;;;;;;5.54;51.10;100536.72;5034083;28;20867;-51
2022/03/12 05:17:49;;;;;;;0.20;0.10;;;;;;;5.58;50.10;100543.72;5030059;28;20586;-51
2022/03/12 05:20:23;;;;;;;0.20;0.10;;;;;;;5.55;49.61;100550.78;5024265;28;20877;-51
2022/03/12 05:22:50;;;;;;;0.30;0.20;;;;;;;5.53;49.52;100553.44;5032913;28;20530;-51
2022/03/12 05:25:18;;;;;;;0.20;0.10;;;;;;;5.51;50.82;100551.69;5033898;28;20828;-51
2022/03/12 05:27:51;;;;;;;0.20;0.20;;;;;;;5.56;49.40;100557.81;5023095;28;20463;-51
2022/03/12 05:30:19;;;;;;;0.30;0.20;;;;;;;5.24;49.18;100555.28;5033675;28;20505;-51
2022/03/12 05:32:46;;;;;;;0.20;0.10;;;;;;;5.17;49.11;100554.41;5033041;28;20468;-51
2022/03/12 05:35:15;;;;;;;0.20;0.10;;;;;;;5.17;48.79;100550.91;5030081;28;20456;-51
2022/03/12 05:37:44;;;;;;;0.70;0.70;;;;;;;4.95;49.23;100556.22;5027596;28;20864;-50
2022/03/12 05:40:11;;;;;;;0.20;0.10;;;;;;;4.96;48.98;100557.09;5031811;28;20513;-52
2022/03/12 05:42:38;;;;;;;0.53;0.53;;;;;;;4.85;49.02;100559.75;5027168;28;20468;-50
2022/03/12 05:45:09;;;;;;;0.20;0.10;;;;;;;5.20;48.99;100557.03;5029859;28;20456;-51
2022/03/12 05:47:38;;;;;;;0.30;0.30;;;;;;;5.24;48.95;100565.84;5016637;28;20560;-51
2022/03/12 05:50:09;;;;;;;0.20;0.20;;;;;;;5.29;48.19;100570.19;5033122;28;20451;-52
2022/03/12 05:52:45;;;;;;;0.20;0.20;;;;;;;5.32;48.44;100578.09;5033456;28;20561;-51
2022/03/12 05:55:12;;;;;;;0.20;0.10;;;;;;;5.42;49.73;100573.69;5009376;28;20447;-51
2022/03/12 05:57:39;;;;;;;0.20;0.10;;;;;;;5.33;48.33;100577.19;5033387;28;20503;-51
2022/03/12 06:00:11;;;;;;;0.20;0.10;;;;;;;5.17;48.92;100575.50;5029046;28;20460;-51
2022/03/12 06:02:49;;;;;;;0.20;0.10;;;;;;;5.29;48.69;100572.84;5027661;28;20529;-51
2022/03/12 06:05:18;;;;;;;0.20;0.10;;;;;;;5.12;48.69;100568.50;5033304;28;20452;-51
2022/03/12 06:07:46;;;;;;;0.20;0.10;;;;;;;4.85;48.82;100567.66;5033007;28;20933;-51
2022/03/12 06:10:15;;;;;;;0.20;0.10;;;;;;;4.77;49.54;100577.28;5027779;28;20871;-51
2022/03/12 06:12:43;;;;;;;0.20;0.10;;;;;;;4.84;48.91;100570.28;5032663;28;20902;-50
2022/03/12 06:15:12;;;;;;;0.20;0.10;;;;;;;4.85;49.30;100558.88;5033134;28;20459;-51
2022/03/12 06:17:39;;;;;;;0.20;0.20;;;;;;;4.90;49.76;100573.78;5024712;28;20456;-51
2022/03/12 06:20:08;;;;;;;0.20;0.10;;;;;;;4.97;49.33;100575.53;5032659;28;20474;-51
2022/03/12 06:22:36;;;;;;;0.20;0.10;;;;;;;5.17;49.14;100577.25;5032601;28;20996;-51
2022/03/12 06:25:03;;;;;;;0.20;0.10;;;;;;;5.40;49.19;100583.34;5032458;28;20460;-50
2022/03/12 06:27:30;;;;;;;0.80;0.80;;;;;;;5.44;48.69;100592.13;5020955;28;20459;-51
2022/03/12 06:29:57;;;;;;;0.20;0.20;;;;;;;5.56;48.49;100590.31;5031464;28;20502;-51
2022/03/12 06:32:23;;;;;;;0.20;0.20;;;;;;;5.65;49.22;100579.75;5030519;28;20472;-51
2022/03/12 06:34:50;;;;;;;0.20;0.10;;;;;;;5.67;48.10;100594.69;5027221;28;20936;-51
2022/03/12 06:37:17;;;;;;;0.30;0.20;;;;;;;5.51;48.76;100597.38;5033081;28;20509;-51
2022/03/12 06:39:43;;;;;;;0.20;0.20;;;;;;;5.41;48.82;100606.19;5032602;28;20492;-50
2022/03/12 06:42:10;;;;;;;0.20;0.10;;;;;;;5.42;48.92;100602.66;5032498;28;20487;-50
2022/03/12 06:44:37;;;;;;;0.20;0.20;;;;;;;5.57;48.41;100607.03;5032813;28;20456;-51
2022/03/12 06:47:08;;;;;;;0.20;0.20;;;;;;;5.30;48.99;100603.56;5026952;28;20522;-50
2022/03/12 06:49:36;;;;;;;0.20;0.10;;;;;;;5.17;49.29;100598.31;5028571;28;20525;-51
2022/03/12 06:52:05;;;;;;;0.20;0.20;;;;;;;5.16;49.29;100593.94;5032214;28;20490;-51
2022/03/12 06:54:33;;;;;;;0.20;0.10;;;;;;;5.12;49.45;100600.09;5032429;28;20493;-51
2022/03/12 06:57:01;;;;;;;0.20;0.10;;;;;;;5.11;49.66;100599.22;5032826;28;20456;-52
2022/03/12 06:59:28;;;;;;;0.20;0.20;;;;;;;5.07;50.38;100600.09;5024502;28;20455;-50
2022/03/12 07:01:54;;;;;;;0.20;0.10;;;;;;;5.00;49.18;100606.25;5022481;28;20573;-50
2022/03/12 07:04:21;;;;;;;0.20;0.10;;;;;;;5.26;48.71;100600.97;5019521;28;20513;-51
2022/03/12 07:06:49;;;;;;;0.20;0.10;;;;;;;5.14;49.25;100595.72;5012528;28;20453;-50
2022/03/12 07:09:17;;;;;;;0.20;0.20;;;;;;;5.01;49.54;100598.34;5017804;28;20456;-50
2022/03/12 07:11:44;;;;;;;0.20;0.10;;;;;;;5.03;48.90;100600.97;5031982;28;20487;-50
2022/03/12 07:14:16;;;;;;;0.70;0.70;;;;;;;5.15;48.65;100600.09;5032162;28;20477;-50
2022/03/12 07:16:42;;;;;;;0.20;0.20;;;;;;;5.28;48.95;100604.47;5016632;28;20456;-51
2022/03/12 07:19:09;;;;;;;0.20;0.13;;;;;;;5.26;48.63;100603.59;5025084;28;20505;-51
2022/03/12 07:21:37;;;;;;;0.80;0.50;;;;;;;5.11;49.21;100603.63;5031825;28;20534;-51
2022/03/12 07:24:04;;;;;;;0.47;0.47;;;;;;;5.14;49.41;100598.34;5028286;28;20878;-50
2022/03/12 07:26:30;;;;;;;0.20;0.10;;;;;;;5.10;50.33;100589.56;5023942;28;20451;-50
2022/03/12 07:28:59;;;;;;;0.20;0.10;;;;;;;5.24;50.25;100595.69;5031832;28;20850;-51
2022/03/12 07:31:26;;;;;;;0.20;0.10;;;;;;;5.31;49.61;100599.19;5031915;28;20984;-51
2022/03/12 07:33:53;;;;;;;0.63;0.63;;;;;;;5.27;49.60;100597.44;5031810;28;20975;-51
2022/03/12 07:36:19;;;;;;;0.20;0.10;;;;;;;5.33;49.86;100600.94;5032153;28;20875;-51
2022/03/12 07:38:46;;;;;;;2.87;0.73;;;;;;;5.33;49.99;100600.94;5028837;28;20455;-50
2022/03/12 07:41:13;;;;;;;0.27;0.20;;;;;;;5.24;49.21;100602.72;5024705;28;20545;-51
2022/03/12 07:43:40;;;;;;;0.30;0.20;;;;;;;5.22;49.33;100612.41;5031617;28;20502;-50
2022/03/12 07:46:06;;;;;;;0.20;0.10;;;;;;;5.28;50.04;100613.25;5017302;28;20514;-51
2022/03/12 07:48:33;;;;;;;0.20;0.10;;;;;;;5.54;50.08;100621.09;5020238;28;20855;-51
2022/03/12 07:51:06;;;;;;;0.20;0.20;;;;;;;5.76;49.22;100623.69;5022841;28;20506;-51
2022/03/12 07:53:33;;;;;;;0.20;0.10;;;;;;;5.57;49.08;100631.63;5035808;28;20509;-51
2022/03/12 07:56:00;;;;;;;0.30;0.20;;;;;;;5.69;48.43;100628.09;5024087;28;20875;-51
2022/03/12 07:58:28;;;;;;;0.50;0.50;;;;;;;5.49;49.15;100624.63;5024443;28;20975;-51
2022/03/12 08:00:58;;;;;;;0.40;0.40;;;;;;;5.49;49.09;100628.16;5021342;28;20452;-51
2022/03/12 08:03:26;;;;;;;0.20;0.20;;;;;;;5.43;49.24;100630.78;5024838;28;20491;-51
2022/03/12 08:05:53;;;;;;;0.20;0.20;;;;;;;5.59;49.07;100629.84;5018834;28;20478;-52
2022/03/12 08:08:20;;;;;;;0.20;0.20;;;;;;;5.67;49.39;100626.34;5032525;28;20452;-51
2022/03/12 08:13:32;;;;;;;2.50;2.40;;;;;;;5.59;49.96;100635.13;5035261;28;20917;-52
2022/03/12 08:15:59;;;;;;;0.20;0.10;;;;;;;5.68;49.33;100633.38;5035259;28;20451;-51
2022/03/12 08:18:26;;;;;;;0.20;0.10;;;;;;;5.63;50.44;100626.34;5020618;28;20448;-51
2022/03/12 08:20:52;;;;;;;0.20;0.17;;;;;;;5.69;49.09;100629.84;5026644;28;20862;-51
2022/03/12 08:23:19;;;;;;;0.30;0.20;;;;;;;5.66;49.35;100622.81;5033536;28;20475;-51
2022/03/12 08:25:46;;;;;;;0.20;0.13;;;;;;;5.85;49.26;100623.63;5009000;28;20443;-51
2022/03/12 08:28:14;;;;;;;0.47;0.47;;;;;;;5.88;49.10;100623.59;5035094;28;20444;-51
2022/03/12 08:30:40;;;;;;;0.20;0.10;;;;;;;6.02;48.61;100632.38;5035068;28;20876;-51
2022/03/12 08:33:07;;;;;;;0.20;0.10;;;;;;;6.11;49.84;100629.69;5034640;28;20494;-52
2022/03/12 08:35:34;;;;;;;0.33;0.33;;;;;;;6.26;49.42;100643.69;5034845;28;20451;-51
2022/03/12 08:38:05;;;;;;;0.20;0.10;;;;;;;6.33;49.38;100640.16;5034463;28;20475;-52
2022/03/12 08:40:33;;;;;;;0.20;0.10;;;;;;;6.24;49.46;100638.44;5017304;28;20455;-51
2022/03/12 08:42:59;;;;;;;0.20;0.10;;;;;;;6.28;49.00;100644.56;5033322;28;20553;-51
2022/03/12 08:45:26;;;;;;;0.23;0.20;;;;;;;6.46;49.73;100641.84;5034571;28;20494;-51
2022/03/12 08:47:53;;;;;;;0.30;0.10;;;;;;;6.57;49.21;100650.53;5024247;28;20449;-51
2022/03/12 08:50:19;;;;;;;0.20;0.20;;;;;;;6.64;49.56;100651.38;5034531;28;20463;-50
2022/03/12 08:52:47;;;;;;;0.20;0.10;;;;;;;6.72;48.67;100641.66;5034521;28;20467;-52
2022/03/12 08:55:14;;;;;;;0.20;0.20;;;;;;;6.69;48.86;100649.59;5034664;28;20448;-50
2022/03/12 08:57:40;;;;;;;0.20;0.20;;;;;;;6.92;48.73;100652.06;5034259;28;20456;-52
2022/03/12 09:00:10;;;;;;;0.20;0.20;;;;;;;7.02;48.38;100653.75;5034448;28;20448;-51
2022/03/12 09:02:38;;;;;;;3.03;1.80;;;;;;;7.16;48.54;100651.88;5034225;28;20984;-52
2022/03/12 09:05:06;;;;;;;0.20;0.20;;;;;;;7.21;47.72;100647.41;5034241;28;20451;-52
2022/03/12 09:07:33;;;;;;;0.20;0.20;;;;;;;7.22;47.45;100645.63;5034142;28;20936;-51
2022/03/12 09:10:00;;;;;;;0.30;0.10;;;;;;;7.34;46.88;100640.25;5028482;28;20447;-51
2022/03/12 09:12:27;;;;;;;0.23;0.10;;;;;;;7.64;47.56;100639.03;5034008;28;20510;-50
2022/03/12 09:14:54;;;;;;;0.20;0.10;;;;;;;7.68;47.00;100643.44;5034384;28;20474;-52
2022/03/12 09:17:21;;;;;;;0.20;0.20;;;;;;;7.61;46.60;100644.38;5030483;28;20522;-52
2022/03/12 09:19:47;;;;;;;0.30;0.20;;;;;;;7.61;46.61;100653.19;5034273;28;20448;-53
2022/03/12 09:22:14;;;;;;;0.30;0.20;;;;;;;7.67;46.63;100654.88;5033898;28;20492;-53
2022/03/12 09:24:41;;;;;;;0.43;0.43;;;;;;;7.51;46.10;100645.34;5033796;28;20510;-53
2022/03/12 09:27:08;;;;;;;0.30;0.17;;;;;;;7.74;46.12;100645.97;5033846;28;20478;-53
2022/03/12 09:29:35;;;;;;;0.30;0.20;;;;;;;7.84;45.89;100637.06;5033941;28;20513;-52
2022/03/12 09:32:05;;;;;;;0.43;0.43;;;;;;;7.81;46.21;100629.16;5033571;28;20467;-53
2022/03/12 09:34:34;;;;;;;0.30;0.20;;;;;;;7.95;46.63;100639.56;5033908;28;20824;-53
2022/03/12 09:37:03;;;;;;;0.30;0.17;;;;;;;8.27;46.34;100639.16;5033829;28;20459;-53
2022/03/12 09:39:30;;;;;;;0.40;0.40;;;;;;;8.21;46.76;100641.88;5033616;28;20945;-52
2022/03/12 09:41:57;;;;;;;0.80;0.80;;;;;;;8.37;45.96;100635.53;5033308;28;20972;-52
2022/03/12 09:44:24;;;;;;;0.30;0.20;;;;;;;8.18;46.38;100626.03;5033136;28;20448;-51
2022/03/12 09:46:50;;;;;;;0.30;0.20;;;;;;;8.39;46.44;100638.16;5030110;28;20455;-51
2022/03/12 09:49:17;;;;;;;0.57;0.57;;;;;;;8.55;47.18;100637.91;5027050;28;20538;-51
2022/03/12 09:51:44;;;;;;;0.30;0.20;;;;;;;8.67;46.38;100633.31;5033416;28;20521;-52
2022/03/12 09:54:12;;;;;;;0.30;0.20;;;;;;;8.75;46.13;100632.28;5033420;28;20460;-51
2022/03/12 09:56:39;;;;;;;0.33;0.33;;;;;;;9.02;46.65;100638.03;5033568;28;20858;-51
2022/03/12 09:59:06;;;;;;;0.30;0.17;;;;;;;8.78;45.30;100634.91;5031813;28;20494;-52
2022/03/12 10:01:33;;;;;;;0.30;0.20;;;;;;;8.81;45.56;100628.69;5032726;28;20460;-51
2022/03/12 10:03:59;;;;;;;0.30;0.20;;;;;;;9.13;45.91;100630.78;5021344;28;20453;-52
2022/03/12 10:06:28;;;;;;;0.30;0.20;;;;;;;9.13;45.12;100634.31;5018576;28;20452;-52
2022/03/12 10:08:55;;;;;;;1.67;1.67;;;;;;;9.09;45.08;100640.56;5025680;28;20523;-52
2022/03/12 10:11:21;;;;;;;0.30;0.20;;;;;;;9.39;45.54;100628.56;5033581;28;20476;-51
2022/03/12 10:13:48;;;;;;;3.40;1.90;;;;;;;9.26;45.07;100618.19;5032835;28;20451;-51
2022/03/12 10:16:18;;;;;;;0.43;0.40;;;;;;;9.30;44.82;100622.53;5033165;28;20448;-50
2022/03/12 10:18:46;;;;;;;4.10;2.20;;;;;;;9.48;44.87;100614.25;5029049;28;20452;-51
2022/03/12 10:21:13;;;;;;;0.30;0.20;;;;;;;9.55;45.15;100612.34;5032851;28;20490;-51
2022/03/12 10:23:39;;;;;;;1.40;1.40;;;;;;;9.94;45.06;100611.53;5032837;28;20908;-51
2022/03/12 10:26:06;;;;;;;0.30;0.20;;;;;;;9.74;44.90;100616.41;5032755;28;20452;-50
2022/03/12 10:28:36;;;;;;;0.30;0.20;;;;;;;10.02;44.43;100625.56;5032537;28;20809;-50
2022/03/12 10:31:07;;;;;;;0.30;0.20;;;;;;;10.15;45.07;100623.50;5032872;28;20831;-50
2022/03/12 10:33:36;;;;;;;0.30;0.30;;;;;;;10.35;43.90;100617.78;5032771;28;20452;-51
2022/03/12 10:36:15;;;;;;;0.30;0.20;;;;;;;10.23;43.71;100613.59;5032727;28;20501;-51
2022/03/12 10:38:43;;;;;;;1.20;1.10;;;;;;;10.18;44.01;100610.16;5032576;28;20451;-50
2022/03/12 10:41:11;;;;;;;0.40;0.30;;;;;;;10.60;43.78;100610.13;5032509;28;20448;-51
2022/03/12 10:43:58;;;;;;;3.60;1.90;;;;;;;10.59;43.47;100601.28;5019547;28;20975;-51
2022/03/12 10:46:28;;;;;;;1.43;1.43;;;;;;;10.58;43.95;100602.19;5032533;28;20961;-50
2022/03/12 10:48:56;;;;;;;0.40;0.40;;;;;;;10.52;44.55;100596.13;5012523;28;20459;-50
2022/03/12 10:51:36;;;;;;;0.70;0.70;;;;;;;10.67;44.08;100596.63;5032520;28;20471;-50
2022/03/12 10:54:09;;;;;;;0.30;0.20;;;;;;;10.64;43.77;100604.69;5021011;28;20862;-51
2022/03/12 10:56:48;;;;;;;0.30;0.20;;;;;;;10.76;43.00;100607.97;5032023;28;20451;-50
2022/03/12 10:59:21;;;;;;;0.30;0.20;;;;;;;10.85;43.85;100613.94;5032309;28;20455;-51
2022/03/12 11:01:59;;;;;;;0.40;0.30;;;;;;;10.76;43.94;100611.50;5032139;28;20488;-50
2022/03/12 11:04:34;;;;;;;0.30;0.20;;;;;;;11.07;43.47;100608.06;5032319;28;20891;-50
2022/03/12 11:07:23;;;;;;;0.40;0.30;;;;;;;11.01;43.40;100606.47;5032471;28;20479;-50
2022/03/12 11:09:51;;;;;;;0.30;0.20;;;;;;;11.40;43.96;100607.22;5015781;28;20455;-50
2022/03/12 11:12:35;;;;;;;5.83;2.73;;;;;;;11.08;43.97;100608.03;5031990;28;20475;-51
2022/03/12 11:15:14;;;;;;;0.40;0.40;;;;;;;11.37;43.88;100607.25;5032275;28;20448;-50
2022/03/12 11:17:49;;;;;;;0.50;0.50;;;;;;;11.60;43.48;100609.31;5027237;28;20447;-50
2022/03/12 11:20:27;;;;;;;0.60;0.60;;;;;;;11.31;43.91;100604.78;5032071;28;20501;-50
2022/03/12 11:23:10;;;;;;;0.30;0.20;;;;;;;11.38;43.53;100601.06;5036355;28;20494;-50
2022/03/12 11:26:05;;;;;;;0.30;0.20;;;;;;;11.05;43.87;100599.25;5036241;28;20522;-50
2022/03/12 11:28:36;;;;;;;0.70;0.70;;;;;;;11.51;44.22;100594.50;5036039;28;20854;-50
2022/03/12 11:31:05;;;;;;;0.40;0.40;;;;;;;11.70;43.81;100578.84;5036389;28;20932;-50
2022/03/12 11:33:32;;;;;;;0.40;0.40;;;;;;;11.56;44.51;100581.91;5036288;28;20971;-50
2022/03/12 11:36:00;;;;;;;0.30;0.20;;;;;;;11.57;44.02;100591.66;5036189;28;20447;-50
2022/03/12 11:38:28;;;;;;;0.30;0.20;;;;;;;11.97;44.28;100593.19;5035873;28;20451;-50
2022/03/12 11:41:03;;;;;;;0.50;0.50;;;;;;;11.72;44.37;100595.66;5036155;28;20502;-50
2022/03/12 11:43:34;;;;;;;0.30;0.20;;;;;;;11.63;44.08;100589.72;5036070;28;20491;-50